Here is the Quick Look data you requested

The Data originates at the National Weather Service, and is made available here by the UAlbany Department of Atmospheric and Environmental Sciences

Surface Observations

KCJR 152055Z AUTO 34014G20KT VCTS BKN085 BKN110 31/20 A2989 RMK AO2 LTG DSNT W
 THRU N T03070200=
KCJR 152115Z AUTO 26015G26KT 5SM +TSRA SCT021 BKN085 OVC110 24/18 A2995 RMK AO2
 LTG DSNT ALQS P0017 T02390184=
KCJR 152135Z AUTO 09010G16KT 060V120 TS 22/21 A2989 RMK AO2 LTG DSNT ALQS P0055
 T02220207=
KCJR 152155Z AUTO 17005KT 10SM TS SCT011 SCT026 SCT034 26/21 A2988 RMK AO2 LTG
 DSNT E THRU SW P0056 T02580209=
KCJR 152215Z AUTO 18004KT VCTS CLR 26/20 A2989 RMK AO2 LTG DSNT SE AND S
 T02570199=
KCJR 152235Z AUTO 00000KT 10SM SCT110 26/20 A2988 RMK AO2 T02560197 PWINO=
KCJR 152255Z AUTO 00000KT 10SM CLR 27/20 A2987 RMK AO2 T02690200 PWINO=
KCJR 152315Z AUTO 00000KT 10SM CLR 27/21 A2987 RMK AO2 T02660206=
KCJR 152335Z AUTO 00000KT CLR 26/21 A2986 RMK AO2 T02600207 PWINO=
KCJR 152355Z AUTO 31003KT 10SM CLR 25/21 A2988 RMK AO2 60056 T02530207 10368
 20220=
KCJR 160015Z AUTO 32003KT CLR 25/21 A2988 RMK AO2 T02510207 PWINO=
KCJR 160035Z AUTO 00000KT CLR 25/21 A2988 RMK AO2 T02480210 PWINO=
KCJR 160055Z AUTO 00000KT 10SM CLR 25/21 A2989 RMK AO2 T02470213 PWINO=
KCJR 160115Z AUTO 00000KT 10SM CLR 24/22 A2989 RMK AO2 T02350221=
KCJR 160135Z AUTO 00000KT 10SM CLR 23/22 A2989 RMK AO2 T02310222=
KCJR 160155Z AUTO 00000KT 7SM CLR 23/22 A2989 RMK AO2 T02300221=
KCJR 160215Z AUTO 00000KT 10SM CLR 23/22 A2989 RMK AO2 T02280219=
KCJR 160235Z AUTO 00000KT 10SM CLR 23/22 A2989 RMK AO2 T02280219=
KCJR 160255Z AUTO 00000KT 7SM CLR 23/22 A2988 RMK AO2 T02270219=
KCJR 160315Z AUTO 00000KT 4SM BR CLR 23/22 A2988 RMK AO2 T02260217=
KCJR 160335Z AUTO 00000KT 5SM BR CLR 23/22 A2987 RMK AO2 T02280220=
KCJR 160355Z AUTO 00000KT 10SM CLR 23/22 A2986 RMK AO2 T02300220=
KCJR 160415Z AUTO 00000KT 10SM CLR 23/22 A2986 RMK AO2 T02300220=
KCJR 160435Z AUTO 00000KT 10SM CLR 23/22 A2986 RMK AO2 T02270218=
KCJR 160455Z AUTO 00000KT 22/22 A2986 RMK AO2 T02240215 403680220 PWINO=
KCJR 160515Z AUTO 00000KT 22/21 A2986 RMK AO2 T02230214 PWINO=
KCJR 160535Z AUTO 00000KT 4SM BR CLR 22/22 A2986 RMK AO2 T02230215=
KCJR 160555Z AUTO 00000KT 7SM CLR 22/21 A2986 RMK AO2 T02190210 10255 20219=
KCJR 160615Z AUTO 00000KT 10SM CLR 22/21 A2986 RMK AO2 T02200211=
KCJR 160635Z AUTO 00000KT 3SM BR CLR 22/21 A2986 RMK AO2 T02200212=
KCJR 160655Z AUTO 00000KT 7SM CLR 22/21 A2986 RMK AO2 T02180209=
KCJR 160715Z AUTO 00000KT 5SM BR CLR 22/21 A2986 RMK AO2 T02200210=
KCJR 160735Z AUTO 00000KT 7SM CLR 22/21 A2987 RMK AO2 T02160208=
KCJR 160755Z AUTO 00000KT 22/21 A2987 RMK AO2 T02160207 PWINO=
KCJR 160815Z AUTO 00000KT 21/21 A2987 RMK AO2 T02130205 PWINO=
KCJR 160835Z AUTO 00000KT 22/21 A2988 RMK AO2 T02170209 PWINO=
KCJR 160855Z AUTO 00000KT 22/21 A2988 RMK AO2 T02160207 PWINO=
KCJR 160915Z AUTO 00000KT 21/21 A2987 RMK AO2 T02130205 PWINO=
KCJR 160935Z AUTO 00000KT 21/20 A2988 RMK AO2 T02130204 PWINO=
KCJR 160955Z AUTO 00000KT 21/21 A2987 RMK AO2 T02140206 PWINO=
KCJR 161015Z AUTO 00000KT 21/20 A2988 RMK AO2 T02110203 PWINO=
KCJR 161035Z AUTO 00000KT 21/20 A2988 RMK AO2 T02130204 PWINO=
KCJR 161055Z AUTO 00000KT 7SM CLR 22/21 A2989 RMK AO2 T02170209=
KCJR 161115Z AUTO 00000KT 7SM CLR 23/22 A2990 RMK AO2 T02250216=
KCJR 161135Z AUTO 00000KT 10SM CLR 24/23 A2991 RMK AO2 T02350226=
KCJR 161155Z AUTO 00000KT 24/23 A2991 RMK AO2 70056 T02430228 10243 20211 PWINO=
KCJR 161215Z AUTO 00000KT CLR 26/23 A2991 RMK AO2 T02550225 PWINO=
KCJR 161235Z AUTO 00000KT CLR 27/22 A2991 RMK AO2 T02700224 PWINO=
KCJR 161255Z AUTO 00000KT CLR 29/23 A2990 RMK AO2 T02870225=
KCJR 161315Z AUTO 19003KT 10SM CLR 29/22 A2989 RMK AO2 T02910217=
KCJR 161335Z AUTO 18005KT CLR 30/22 A2988 RMK AO2 T03040215 PWINO=
KCJR 161355Z AUTO 18004KT CLR 31/22 A2989 RMK AO2 T03140215 PWINO=
KCJR 161415Z AUTO 21005KT 7SM CLR 32/21 A2989 RMK AO2 T03210210=
KCJR 161435Z AUTO 22005KT 10SM CLR 33/22 A2989 RMK AO2 T03310216=
KCJR 161455Z AUTO 21004KT 10SM CLR 34/22 A2989 RMK AO2 T03390219=
KCJR 161515Z AUTO 22005KT 10SM CLR 34/21 A2989 RMK AO2 T03400212=
KCJR 161535Z AUTO 18007KT 10SM CLR 35/21 A2988 RMK AO2 T03470206=
KCJR 161555Z AUTO 22007KT 10SM CLR 35/20 A2989 RMK AO2 T03470201=
KCJR 161615Z AUTO 21006KT 10SM CLR 35/20 A2988 RMK AO2 T03510201=
KCJR 161635Z AUTO 20008KT 10SM CLR 36/20 A2988 RMK AO2 T03570203=
KCJR 161655Z AUTO 18006KT 160V220 10SM CLR 36/20 A2987 RMK AO2 T03580199=
KCJR 161715Z AUTO 19007KT 160V220 10SM CLR 36/20 A2986 RMK AO2 T03600201=
KCJR 161735Z AUTO 19010G16KT 10SM CLR 36/20 A2985 RMK AO2 T03620198=
KCJR 161755Z AUTO 19008KT 10SM CLR 37/20 A2984 RMK AO2 T03650201 10365 20244=
KCJR 161815Z AUTO 20008KT 170V230 10SM CLR 37/20 A2983 RMK AO2 T03650199=
KCJR 161835Z AUTO 18009G15KT 10SM CLR 37/20 A2983 RMK AO2 T03710202=
KCJR 161855Z AUTO 22005KT 10SM CLR 37/21 A2982 RMK AO2 T03700207=
KCJR 161915Z AUTO 19006KT 10SM CLR 37/21 A2982 RMK AO2 T03730206=
KCJR 161935Z AUTO 20006KT 10SM CLR 38/21 A2981 RMK AO2 T03750207=
KCJR 161955Z AUTO 18008KT 10SM CLR 37/20 A2980 RMK AO2 T03730196=
KCJR 162015Z AUTO 20009G15KT 10SM CLR 38/20 A2979 RMK AO2 T03750200=
KCJR 162035Z AUTO 20008G14KT 10SM CLR 37/19 A2979 RMK AO2 T03740193=
KCJR 162055Z AUTO 20009G17KT 170V230 10SM CLR 37/19 A2978 RMK AO2 T03740192=

Decoded Surface Observations


The weather observed at CULPEPER, VA (KCJR) at 04:55 PM EDT was:
  The skies were mostly cloudy.
  The weather reported was a thunderstorm in the vicinity.
  Temperature: 88F ( 31C)  Dewpoint:  68F ( 20C)  Relative Humidity:  52%
  Winds from the NNW(340 degs) at 16 mph.
  Altimeter:29.89 inches of mercury.

The weather observed at CULPEPER, VA (KCJR) at 05:15 PM EDT was:
  The skies were cloudy.
  The weather reported was heavy thunder rain.
  Temperature: 75F ( 24C)  Dewpoint:  64F ( 18C)  Relative Humidity:  69%
  Winds from the W  (260 degs) at 17 mph.
  Altimeter:29.95 inches of mercury.
  The prevailing visibility was 5 miles.
  There has been 0.17 inches of precipitation in the past hour.

The weather observed at CULPEPER, VA (KCJR) at 05:35 PM EDT was:
  The skies were unobserved.
  The weather reported was a thunderstorm.
  Temperature: 72F ( 22C)  Dewpoint:  70F ( 21C)  Relative Humidity:  94%
  Winds from the E  (090 degs) at 12 mph.
  Altimeter:29.89 inches of mercury.
  There has been 0.55 inches of precipitation in the past hour.

The weather observed at CULPEPER, VA (KCJR) at 05:55 PM EDT was:
  The skies were partly cloudy.
  The weather reported was a thunderstorm.
  Temperature: 79F ( 26C)  Dewpoint:  70F ( 21C)  Relative Humidity:  74%
  Winds from the S  (170 degs) at  6 mph.
  Altimeter:29.88 inches of mercury.
  The prevailing visibility was 10 miles.
  There has been 0.56 inches of precipitation in the past hour.

The weather observed at CULPEPER, VA (KCJR) at 06:15 PM EDT was:
  The skies were clear.
  The weather reported was a thunderstorm in the vicinity.
  Temperature: 79F ( 26C)  Dewpoint:  68F ( 20C)  Relative Humidity:  70%
  Winds from the S  (180 degs) at  5 mph.
  Altimeter:29.89 inches of mercury.

The weather observed at CULPEPER, VA (KCJR) at 06:35 PM EDT was:
  The skies were partly cloudy.
  Temperature: 78F ( 26C)  Dewpoint:  67F ( 20C)  Relative Humidity:  70%
  Winds from the CLM(CLM degs) at  0 mph.
  Altimeter:29.88 inches of mercury.
  The prevailing visibility was 10 miles.

The weather observed at CULPEPER, VA (KCJR) at 06:55 PM EDT was:
  The skies were clear.
  Temperature: 80F ( 27C)  Dewpoint:  68F ( 20C)  Relative Humidity:  66%
  Winds from the CLM(CLM degs) at  0 mph.
  Altimeter:29.87 inches of mercury.
  The prevailing visibility was 10 miles.

The weather observed at CULPEPER, VA (KCJR) at 07:15 PM EDT was:
  The skies were clear.
  Temperature: 81F ( 27C)  Dewpoint:  70F ( 21C)  Relative Humidity:  70%
  Winds from the CLM(CLM degs) at  0 mph.
  Altimeter:29.87 inches of mercury.
  The prevailing visibility was 10 miles.

The weather observed at CULPEPER, VA (KCJR) at 07:35 PM EDT was:
  The skies were clear.
  Temperature: 79F ( 26C)  Dewpoint:  69F ( 21C)  Relative Humidity:  73%
  Winds from the CLM(CLM degs) at  0 mph.
  Altimeter:29.86 inches of mercury.

The weather observed at CULPEPER, VA (KCJR) at 07:55 PM EDT was:
  The skies were clear.
  Temperature: 78F ( 25C)  Dewpoint:  69F ( 21C)  Relative Humidity:  76%
  Winds from the NW (310 degs) at  3 mph.
  Altimeter:29.88 inches of mercury.
  The prevailing visibility was 10 miles.
  The maximum temperature in the past 6 hours was  98F.
  There has been 0.56 inches of precipitation in the past 6 hours.

The weather observed at CULPEPER, VA (KCJR) at 08:15 PM EDT was:
  The skies were clear.
  Temperature: 77F ( 25C)  Dewpoint:  69F ( 21C)  Relative Humidity:  77%
  Winds from the NW (320 degs) at  3 mph.
  Altimeter:29.88 inches of mercury.

The weather observed at CULPEPER, VA (KCJR) at 08:35 PM EDT was:
  The skies were clear.
  Temperature: 77F ( 25C)  Dewpoint:  70F ( 21C)  Relative Humidity:  79%
  Winds from the CLM(CLM degs) at  0 mph.
  Altimeter:29.88 inches of mercury.

The weather observed at CULPEPER, VA (KCJR) at 08:55 PM EDT was:
  The skies were clear.
  Temperature: 76F ( 25C)  Dewpoint:  70F ( 21C)  Relative Humidity:  81%
  Winds from the CLM(CLM degs) at  0 mph.
  Altimeter:29.89 inches of mercury.
  The prevailing visibility was 10 miles.

The weather observed at CULPEPER, VA (KCJR) at 09:15 PM EDT was:
  The skies were clear.
  Temperature: 75F ( 24C)  Dewpoint:  72F ( 22C)  Relative Humidity:  89%
  Winds from the CLM(CLM degs) at  0 mph.
  Altimeter:29.89 inches of mercury.
  The prevailing visibility was 10 miles.

The weather observed at CULPEPER, VA (KCJR) at 09:35 PM EDT was:
  The skies were clear.
  Temperature: 73F ( 23C)  Dewpoint:  72F ( 22C)  Relative Humidity:  94%
  Winds from the CLM(CLM degs) at  0 mph.
  Altimeter:29.89 inches of mercury.
  The prevailing visibility was 10 miles.

The weather observed at CULPEPER, VA (KCJR) at 09:55 PM EDT was:
  The skies were clear.
  Temperature: 73F ( 23C)  Dewpoint:  72F ( 22C)  Relative Humidity:  94%
  Winds from the CLM(CLM degs) at  0 mph.
  Altimeter:29.89 inches of mercury.
  The prevailing visibility was 7 miles.

The weather observed at CULPEPER, VA (KCJR) at 10:15 PM EDT was:
  The skies were clear.
  Temperature: 73F ( 23C)  Dewpoint:  72F ( 22C)  Relative Humidity:  94%
  Winds from the CLM(CLM degs) at  0 mph.
  Altimeter:29.89 inches of mercury.
  The prevailing visibility was 10 miles.

The weather observed at CULPEPER, VA (KCJR) at 10:35 PM EDT was:
  The skies were clear.
  Temperature: 73F ( 23C)  Dewpoint:  72F ( 22C)  Relative Humidity:  94%
  Winds from the CLM(CLM degs) at  0 mph.
  Altimeter:29.89 inches of mercury.
  The prevailing visibility was 10 miles.

The weather observed at CULPEPER, VA (KCJR) at 10:55 PM EDT was:
  The skies were clear.
  Temperature: 73F ( 23C)  Dewpoint:  72F ( 22C)  Relative Humidity:  94%
  Winds from the CLM(CLM degs) at  0 mph.
  Altimeter:29.88 inches of mercury.
  The prevailing visibility was 7 miles.

The weather observed at CULPEPER, VA (KCJR) at 11:15 PM EDT was:
  The skies were clear.
  The weather reported was fog.
  Temperature: 73F ( 23C)  Dewpoint:  72F ( 22C)  Relative Humidity:  94%
  Winds from the CLM(CLM degs) at  0 mph.
  Altimeter:29.88 inches of mercury.
  The prevailing visibility was 4 miles.

The weather observed at CULPEPER, VA (KCJR) at 11:35 PM EDT was:
  The skies were clear.
  The weather reported was fog.
  Temperature: 73F ( 23C)  Dewpoint:  72F ( 22C)  Relative Humidity:  94%
  Winds from the CLM(CLM degs) at  0 mph.
  Altimeter:29.87 inches of mercury.
  The prevailing visibility was 5 miles.

The weather observed at CULPEPER, VA (KCJR) at 11:55 PM EDT was:
  The skies were clear.
  Temperature: 73F ( 23C)  Dewpoint:  72F ( 22C)  Relative Humidity:  94%
  Winds from the CLM(CLM degs) at  0 mph.
  Altimeter:29.86 inches of mercury.
  The prevailing visibility was 10 miles.

The weather observed at CULPEPER, VA (KCJR) at 12:15 AM EDT was:
  The skies were clear.
  Temperature: 73F ( 23C)  Dewpoint:  72F ( 22C)  Relative Humidity:  94%
  Winds from the CLM(CLM degs) at  0 mph.
  Altimeter:29.86 inches of mercury.
  The prevailing visibility was 10 miles.

The weather observed at CULPEPER, VA (KCJR) at 12:35 AM EDT was:
  The skies were clear.
  Temperature: 73F ( 23C)  Dewpoint:  72F ( 22C)  Relative Humidity:  94%
  Winds from the CLM(CLM degs) at  0 mph.
  Altimeter:29.86 inches of mercury.
  The prevailing visibility was 10 miles.

The weather observed at CULPEPER, VA (KCJR) at 12:55 AM EDT was:
  The skies were unobserved.
  Temperature: 72F ( 22C)  Dewpoint:  71F ( 22C)  Relative Humidity:  95%
  Winds from the CLM(CLM degs) at  0 mph.
  Altimeter:29.86 inches of mercury.
  The maximum temperature in the past 24 hours was  98F.
  The minimum temperature in the past 24 hours was  72F.

The weather observed at CULPEPER, VA (KCJR) at 01:15 AM EDT was:
  The skies were unobserved.
  Temperature: 72F ( 22C)  Dewpoint:  71F ( 21C)  Relative Humidity:  95%
  Winds from the CLM(CLM degs) at  0 mph.
  Altimeter:29.86 inches of mercury.

The weather observed at CULPEPER, VA (KCJR) at 01:35 AM EDT was:
  The skies were clear.
  The weather reported was fog.
  Temperature: 72F ( 22C)  Dewpoint:  72F ( 22C)  Relative Humidity: 100%
  Winds from the CLM(CLM degs) at  0 mph.
  Altimeter:29.86 inches of mercury.
  The prevailing visibility was 4 miles.

The weather observed at CULPEPER, VA (KCJR) at 01:55 AM EDT was:
  The skies were clear.
  Temperature: 71F ( 22C)  Dewpoint:  70F ( 21C)  Relative Humidity:  95%
  Winds from the CLM(CLM degs) at  0 mph.
  Altimeter:29.86 inches of mercury.
  The prevailing visibility was 7 miles.
  The maximum temperature in the past 6 hours was  78F.

The weather observed at CULPEPER, VA (KCJR) at 02:15 AM EDT was:
  The skies were clear.
  Temperature: 72F ( 22C)  Dewpoint:  70F ( 21C)  Relative Humidity:  94%
  Winds from the CLM(CLM degs) at  0 mph.
  Altimeter:29.86 inches of mercury.
  The prevailing visibility was 10 miles.

The weather observed at CULPEPER, VA (KCJR) at 02:35 AM EDT was:
  The skies were clear.
  The weather reported was fog.
  Temperature: 72F ( 22C)  Dewpoint:  70F ( 21C)  Relative Humidity:  94%
  Winds from the CLM(CLM degs) at  0 mph.
  Altimeter:29.86 inches of mercury.
  The prevailing visibility was 3 miles.

The weather observed at CULPEPER, VA (KCJR) at 02:55 AM EDT was:
  The skies were clear.
  Temperature: 72F ( 22C)  Dewpoint:  70F ( 21C)  Relative Humidity:  94%
  Winds from the CLM(CLM degs) at  0 mph.
  Altimeter:29.86 inches of mercury.
  The prevailing visibility was 7 miles.

The weather observed at CULPEPER, VA (KCJR) at 03:15 AM EDT was:
  The skies were clear.
  The weather reported was fog.
  Temperature: 72F ( 22C)  Dewpoint:  70F ( 21C)  Relative Humidity:  94%
  Winds from the CLM(CLM degs) at  0 mph.
  Altimeter:29.86 inches of mercury.
  The prevailing visibility was 5 miles.

The weather observed at CULPEPER, VA (KCJR) at 03:35 AM EDT was:
  The skies were clear.
  Temperature: 72F ( 22C)  Dewpoint:  70F ( 21C)  Relative Humidity:  94%
  Winds from the CLM(CLM degs) at  0 mph.
  Altimeter:29.87 inches of mercury.
  The prevailing visibility was 7 miles.

The weather observed at CULPEPER, VA (KCJR) at 03:55 AM EDT was:
  The skies were unobserved.
  Temperature: 71F ( 22C)  Dewpoint:  69F ( 21C)  Relative Humidity:  95%
  Winds from the CLM(CLM degs) at  0 mph.
  Altimeter:29.87 inches of mercury.

The weather observed at CULPEPER, VA (KCJR) at 04:15 AM EDT was:
  The skies were unobserved.
  Temperature: 70F ( 21C)  Dewpoint:  69F ( 21C)  Relative Humidity:  95%
  Winds from the CLM(CLM degs) at  0 mph.
  Altimeter:29.87 inches of mercury.

The weather observed at CULPEPER, VA (KCJR) at 04:35 AM EDT was:
  The skies were unobserved.
  Temperature: 71F ( 22C)  Dewpoint:  70F ( 21C)  Relative Humidity:  95%
  Winds from the CLM(CLM degs) at  0 mph.
  Altimeter:29.88 inches of mercury.

The weather observed at CULPEPER, VA (KCJR) at 04:55 AM EDT was:
  The skies were unobserved.
  Temperature: 71F ( 22C)  Dewpoint:  69F ( 21C)  Relative Humidity:  95%
  Winds from the CLM(CLM degs) at  0 mph.
  Altimeter:29.88 inches of mercury.

The weather observed at CULPEPER, VA (KCJR) at 05:15 AM EDT was:
  The skies were unobserved.
  Temperature: 70F ( 21C)  Dewpoint:  69F ( 21C)  Relative Humidity:  95%
  Winds from the CLM(CLM degs) at  0 mph.
  Altimeter:29.87 inches of mercury.

The weather observed at CULPEPER, VA (KCJR) at 05:35 AM EDT was:
  The skies were unobserved.
  Temperature: 70F ( 21C)  Dewpoint:  69F ( 20C)  Relative Humidity:  95%
  Winds from the CLM(CLM degs) at  0 mph.
  Altimeter:29.88 inches of mercury.

The weather observed at CULPEPER, VA (KCJR) at 05:55 AM EDT was:
  The skies were unobserved.
  Temperature: 71F ( 21C)  Dewpoint:  69F ( 21C)  Relative Humidity:  95%
  Winds from the CLM(CLM degs) at  0 mph.
  Altimeter:29.87 inches of mercury.

The weather observed at CULPEPER, VA (KCJR) at 06:15 AM EDT was:
  The skies were unobserved.
  Temperature: 70F ( 21C)  Dewpoint:  69F ( 20C)  Relative Humidity:  95%
  Winds from the CLM(CLM degs) at  0 mph.
  Altimeter:29.88 inches of mercury.

The weather observed at CULPEPER, VA (KCJR) at 06:35 AM EDT was:
  The skies were unobserved.
  Temperature: 70F ( 21C)  Dewpoint:  69F ( 20C)  Relative Humidity:  95%
  Winds from the CLM(CLM degs) at  0 mph.
  Altimeter:29.88 inches of mercury.

The weather observed at CULPEPER, VA (KCJR) at 06:55 AM EDT was:
  The skies were clear.
  Temperature: 72F ( 22C)  Dewpoint:  70F ( 21C)  Relative Humidity:  94%
  Winds from the CLM(CLM degs) at  0 mph.
  Altimeter:29.89 inches of mercury.
  The prevailing visibility was 7 miles.

The weather observed at CULPEPER, VA (KCJR) at 07:15 AM EDT was:
  The skies were clear.
  Temperature: 73F ( 23C)  Dewpoint:  72F ( 22C)  Relative Humidity:  94%
  Winds from the CLM(CLM degs) at  0 mph.
  Altimeter:29.90 inches of mercury.
  The prevailing visibility was 7 miles.

The weather observed at CULPEPER, VA (KCJR) at 07:35 AM EDT was:
  The skies were clear.
  Temperature: 75F ( 24C)  Dewpoint:  73F ( 23C)  Relative Humidity:  94%
  Winds from the CLM(CLM degs) at  0 mph.
  Altimeter:29.91 inches of mercury.
  The prevailing visibility was 10 miles.

The weather observed at CULPEPER, VA (KCJR) at 07:55 AM EDT was:
  The skies were unobserved.
  Temperature: 76F ( 24C)  Dewpoint:  73F ( 23C)  Relative Humidity:  91%
  Winds from the CLM(CLM degs) at  0 mph.
  Altimeter:29.91 inches of mercury.
  The maximum temperature in the past 6 hours was  76F.
  The minimum temperature in the past 6 hours was  70F.
  There has been 0.56 inches of precipitation in the past 24 hours.

The weather observed at CULPEPER, VA (KCJR) at 08:15 AM EDT was:
  The skies were clear.
  Temperature: 78F ( 26C)  Dewpoint:  73F ( 23C)  Relative Humidity:  83%
  Winds from the CLM(CLM degs) at  0 mph.
  Altimeter:29.91 inches of mercury.

The weather observed at CULPEPER, VA (KCJR) at 08:35 AM EDT was:
  The skies were clear.
  Temperature: 81F ( 27C)  Dewpoint:  72F ( 22C)  Relative Humidity:  76%
  Winds from the CLM(CLM degs) at  0 mph.
  Altimeter:29.91 inches of mercury.

The weather observed at CULPEPER, VA (KCJR) at 08:55 AM EDT was:
  The skies were clear.
  Temperature: 84F ( 29C)  Dewpoint:  73F ( 23C)  Relative Humidity:  70%
  Winds from the CLM(CLM degs) at  0 mph.
  Altimeter:29.90 inches of mercury.

The weather observed at CULPEPER, VA (KCJR) at 09:15 AM EDT was:
  The skies were clear.
  Temperature: 84F ( 29C)  Dewpoint:  72F ( 22C)  Relative Humidity:  66%
  Winds from the S  (190 degs) at  3 mph.
  Altimeter:29.89 inches of mercury.
  The prevailing visibility was 10 miles.

The weather observed at CULPEPER, VA (KCJR) at 09:35 AM EDT was:
  The skies were clear.
  Temperature: 87F ( 30C)  Dewpoint:  71F ( 22C)  Relative Humidity:  59%
  Winds from the S  (180 degs) at  6 mph.
  Altimeter:29.88 inches of mercury.

The weather observed at CULPEPER, VA (KCJR) at 09:55 AM EDT was:
  The skies were clear.
  Temperature: 89F ( 31C)  Dewpoint:  71F ( 22C)  Relative Humidity:  56%
  Winds from the S  (180 degs) at  5 mph.
  Altimeter:29.89 inches of mercury.

The weather observed at CULPEPER, VA (KCJR) at 10:15 AM EDT was:
  The skies were clear.
  Temperature: 90F ( 32C)  Dewpoint:  70F ( 21C)  Relative Humidity:  52%
  Winds from the SW (210 degs) at  6 mph.
  Altimeter:29.89 inches of mercury.
  The prevailing visibility was 7 miles.

The weather observed at CULPEPER, VA (KCJR) at 10:35 AM EDT was:
  The skies were clear.
  Temperature: 91F ( 33C)  Dewpoint:  72F ( 22C)  Relative Humidity:  52%
  Winds from the SW (220 degs) at  6 mph.
  Altimeter:29.89 inches of mercury.
  The prevailing visibility was 10 miles.

The weather observed at CULPEPER, VA (KCJR) at 10:55 AM EDT was:
  The skies were clear.
  Temperature: 93F ( 34C)  Dewpoint:  72F ( 22C)  Relative Humidity:  50%
  Winds from the SW (210 degs) at  5 mph.
  Altimeter:29.89 inches of mercury.
  The prevailing visibility was 10 miles.

The weather observed at CULPEPER, VA (KCJR) at 11:15 AM EDT was:
  The skies were clear.
  Temperature: 93F ( 34C)  Dewpoint:  70F ( 21C)  Relative Humidity:  47%
  Winds from the SW (220 degs) at  6 mph.
  Altimeter:29.89 inches of mercury.
  The prevailing visibility was 10 miles.

The weather observed at CULPEPER, VA (KCJR) at 11:35 AM EDT was:
  The skies were clear.
  Temperature: 95F ( 35C)  Dewpoint:  70F ( 21C)  Relative Humidity:  44%
  Winds from the S  (180 degs) at  8 mph.
  Altimeter:29.88 inches of mercury.
  The prevailing visibility was 10 miles.

The weather observed at CULPEPER, VA (KCJR) at 11:55 AM EDT was:
  The skies were clear.
  Temperature: 95F ( 35C)  Dewpoint:  68F ( 20C)  Relative Humidity:  42%
  Winds from the SW (220 degs) at  8 mph.
  Altimeter:29.89 inches of mercury.
  The prevailing visibility was 10 miles.

The weather observed at CULPEPER, VA (KCJR) at 12:15 PM EDT was:
  The skies were clear.
  Temperature: 95F ( 35C)  Dewpoint:  68F ( 20C)  Relative Humidity:  42%
  Winds from the SW (210 degs) at  7 mph.
  Altimeter:29.88 inches of mercury.
  The prevailing visibility was 10 miles.

The weather observed at CULPEPER, VA (KCJR) at 12:35 PM EDT was:
  The skies were clear.
  Temperature: 97F ( 36C)  Dewpoint:  68F ( 20C)  Relative Humidity:  39%
  Winds from the SSW(200 degs) at  9 mph.
  Altimeter:29.88 inches of mercury.
  The prevailing visibility was 10 miles.

The weather observed at CULPEPER, VA (KCJR) at 12:55 PM EDT was:
  The skies were clear.
  Temperature: 97F ( 36C)  Dewpoint:  68F ( 20C)  Relative Humidity:  39%
  Winds from the S  (180 degs) at  7 mph.
  Altimeter:29.87 inches of mercury.
  The prevailing visibility was 10 miles.

The weather observed at CULPEPER, VA (KCJR) at 01:15 PM EDT was:
  The skies were clear.
  Temperature: 97F ( 36C)  Dewpoint:  68F ( 20C)  Relative Humidity:  39%
  Winds from the S  (190 degs) at  8 mph.
  Altimeter:29.86 inches of mercury.
  The prevailing visibility was 10 miles.

The weather observed at CULPEPER, VA (KCJR) at 01:35 PM EDT was:
  The skies were clear.
  Temperature: 97F ( 36C)  Dewpoint:  68F ( 20C)  Relative Humidity:  39%
  Winds from the S  (190 degs) at 12 mph.
  Altimeter:29.85 inches of mercury.
  The prevailing visibility was 10 miles.

The weather observed at CULPEPER, VA (KCJR) at 01:55 PM EDT was:
  The skies were clear.
  Temperature: 98F ( 37C)  Dewpoint:  68F ( 20C)  Relative Humidity:  38%
  Winds from the S  (190 degs) at  9 mph.
  Altimeter:29.84 inches of mercury.
  The prevailing visibility was 10 miles.
  The maximum temperature in the past 6 hours was  98F.

The weather observed at CULPEPER, VA (KCJR) at 02:15 PM EDT was:
  The skies were clear.
  Temperature: 99F ( 37C)  Dewpoint:  68F ( 20C)  Relative Humidity:  37%
  Winds from the SSW(200 degs) at  9 mph.
  Altimeter:29.83 inches of mercury.
  The prevailing visibility was 10 miles.

The weather observed at CULPEPER, VA (KCJR) at 02:35 PM EDT was:
  The skies were clear.
  Temperature: 99F ( 37C)  Dewpoint:  68F ( 20C)  Relative Humidity:  37%
  Winds from the S  (180 degs) at 10 mph.
  Altimeter:29.83 inches of mercury.
  The prevailing visibility was 10 miles.

The weather observed at CULPEPER, VA (KCJR) at 02:55 PM EDT was:
  The skies were clear.
  Temperature: 99F ( 37C)  Dewpoint:  70F ( 21C)  Relative Humidity:  40%
  Winds from the SW (220 degs) at  6 mph.
  Altimeter:29.82 inches of mercury.
  The prevailing visibility was 10 miles.

The weather observed at CULPEPER, VA (KCJR) at 03:15 PM EDT was:
  The skies were clear.
  Temperature: 99F ( 37C)  Dewpoint:  70F ( 21C)  Relative Humidity:  40%
  Winds from the S  (190 degs) at  7 mph.
  Altimeter:29.82 inches of mercury.
  The prevailing visibility was 10 miles.

The weather observed at CULPEPER, VA (KCJR) at 03:35 PM EDT was:
  The skies were clear.
  Temperature:100F ( 38C)  Dewpoint:  70F ( 21C)  Relative Humidity:  37%
  Winds from the SSW(200 degs) at  7 mph.
  Altimeter:29.81 inches of mercury.
  The prevailing visibility was 10 miles.

The weather observed at CULPEPER, VA (KCJR) at 03:55 PM EDT was:
  The skies were clear.
  Temperature: 99F ( 37C)  Dewpoint:  68F ( 20C)  Relative Humidity:  37%
  Winds from the S  (180 degs) at  9 mph.
  Altimeter:29.80 inches of mercury.
  The prevailing visibility was 10 miles.

The weather observed at CULPEPER, VA (KCJR) at 04:15 PM EDT was:
  The skies were clear.
  Temperature:100F ( 38C)  Dewpoint:  68F ( 20C)  Relative Humidity:  35%
  Winds from the SSW(200 degs) at 10 mph.
  Altimeter:29.79 inches of mercury.
  The prevailing visibility was 10 miles.

The weather observed at CULPEPER, VA (KCJR) at 04:35 PM EDT was:
  The skies were clear.
  Temperature: 99F ( 37C)  Dewpoint:  66F ( 19C)  Relative Humidity:  35%
  Winds from the SSW(200 degs) at  9 mph.
  Altimeter:29.79 inches of mercury.
  The prevailing visibility was 10 miles.

The weather observed at CULPEPER, VA (KCJR) at 04:55 PM EDT was:
  The skies were clear.
  Temperature: 99F ( 37C)  Dewpoint:  66F ( 19C)  Relative Humidity:  35%
  Winds from the SSW(200 degs) at 10 mph.
  Altimeter:29.78 inches of mercury.
  The prevailing visibility was 10 miles.

Short Range Forecast

Sorry no data found for cjr
Make sure cjr is a valid station
You might need to specify a nearby major city
Try Again

Zone Forecast

VAZ050-170000-
Orange-
Including the cities of Orange and Gordonsville
432 PM EDT Tue Jul 16 2024

...HEAT ADVISORY IN EFFECT UNTIL 8 PM EDT THIS EVENING...
...SEVERE THUNDERSTORM WATCH 548 IN EFFECT UNTIL 10 PM EDT THIS
EVENING...
...HEAT ADVISORY IN EFFECT FROM 11 AM TO 8 PM EDT WEDNESDAY...

.REST OF THIS AFTERNOON...Mostly sunny with scattered showers and
thunderstorms. Some thunderstorms may be severe with damaging
winds. Hot with highs in the upper 90s. South winds around 10 mph
with gusts up to 20 mph. Chance of rain 50 percent.
.TONIGHT...Mostly cloudy with scattered showers and thunderstorms
in the evening, then partly cloudy after midnight. Some
thunderstorms may be severe with damaging winds. Lows in the
lower 70s. Southwest winds 5 to 10 mph. Chance of rain
50 percent.
.WEDNESDAY...Mostly sunny. Showers and scattered thunderstorms in
the afternoon. Hot with highs in the upper 90s. Southwest winds
5 to 10 mph. Chance of rain 80 percent. Heat index values up to
110.
.WEDNESDAY NIGHT...Showers and numerous thunderstorms in the
evening, then numerous showers and scattered thunderstorms after
midnight. Lows in the lower 70s. West winds around 5 mph. Chance
of rain 80 percent.
.THURSDAY...Mostly cloudy with scattered showers. Scattered
thunderstorms in the afternoon. Highs in the mid 80s. North winds
around 5 mph. Chance of rain 50 percent.
.THURSDAY NIGHT...Mostly cloudy. Lows in the mid 60s.
.FRIDAY...Mostly sunny. Highs in the mid 80s.
.FRIDAY NIGHT...Mostly cloudy. Lows in the mid 60s.
.SATURDAY...Partly sunny with a chance of showers and
thunderstorms. Highs in the mid 80s. Chance of rain 40 percent.
.SATURDAY NIGHT...Mostly cloudy. Lows in the upper 60s.
.SUNDAY...Partly sunny with a chance of showers and
thunderstorms. Highs in the upper 80s. Chance of rain 30 percent.
.SUNDAY NIGHT...Mostly cloudy with a chance of showers and
thunderstorms. Lows in the upper 60s. Chance of rain 30 percent.
.MONDAY...Partly sunny with a chance of showers and
thunderstorms. Highs in the upper 80s. Chance of rain 50 percent.


State Forecast

Sorry no data found for cjr
Make sure cjr is a valid station
You might need to specify a nearby major city
Try Again

State Forecast Discussion

Sorry no data found for cjr
Make sure cjr is a valid station
You might need to specify a nearby major city
Try Again

GFS Short-Range Model Output Statistics (MOS) Forecast

KCJR   GFS MOS GUIDANCE    7/16/2024  1200 UTC
DT /JULY 16/JULY 17                /JULY 18                /JULY 19
HR   18 21 00 03 06 09 12 15 18 21 00 03 06 09 12 15 18 21 00 06 12
N/X                    71          97          70          87    64
TMP 100100 90 79 75 73 80 91 95 92 85 77 73 71 74 81 85 85 78 69 71
DPT  64 64 68 70 70 69 71 70 67 68 72 73 71 69 70 67 65 64 67 64 62
CLD  SC SC BK OV SC SC SC BK OV OV OV OV OV OV OV BK BK BK BK BK SC
WDR  22 23 23 28 33 00 20 21 23 23 27 32 33 35 36 35 36 34 32 34 01
WSP  08 09 03 03 01 00 02 04 08 07 05 01 03 01 02 04 04 03 01 02 03
P06         4    17     6     1    60    46    12    16    10 14 10
P12                    26          71          54          27    14
Q06         0     0     0     0     4     1     0     0     0  0  0
Q12                     0           3           1           0     0
T06     29/27 23/11  3/ 1  2/ 6 52/34 22/10  2/ 2  5/ 3 17/16  2/ 0
T12           39/36        3/ 8       53/35        7/ 5    19/18
CIG   8  8  8  8  8  8  8  8  8  8  6  6  6  1  7  6  7  8  8  7  8
VIS   7  7  7  7  7  7  7  7  7  7  7  7  7  6  7  7  7  7  7  7  7
OBV   N  N  N  N  N  N  N  N  N  N  N  N  N  N  N  N  N  N  N  N  N

GFS Long-Range Model Output Statistics (MOS) Forecast

KCJR   GFSX MOS GUIDANCE   7/16/2024  1200 UTC
FHR  24  36| 48  60| 72  84| 96 108|120 132|144 156|168 180|192
     WED 17| THU 18| FRI 19| SAT 20| SUN 21| MON 22| TUE 23|WED CLIMO
N/X  71  97| 70  87| 64  87| 67  90| 68  90| 67  91| 67  91| 69 65 88
TMP  80  85| 74  78| 71  79| 74  81| 74  80| 74  80| 73  81| 75
DPT  71  72| 70  67| 62  62| 67  70| 69  71| 69  69| 69  71| 70
CLD  PC  OV| OV  OV| PC  PC| PC  OV| OV  OV| OV  OV| OV  OV| OV
WND   3   8|  5   4|  4   4|  1   4|  1   3|  2   3|  1   5|  2
P12  26  71| 54  27| 14   6| 11  19| 20  29| 23  24| 27  31| 28999999
P24      73|     61|     16|     19|     41|     37|     49|      999
Q12   0   3|  1   0|  0   0|  0   0|  0   0|  0   0|       |
Q24       2|      1|      0|      0|      1|      0|       |
T12  23  52| 22  19| 11  13|  6  21| 15  33| 20  33| 21  32| 15
T24        | 52    | 19    | 13    | 24    | 37    | 39    | 33

NGM Model Output Statistics (MOS) Forecast

Climatological Summary

Sorry no data found for cjr
Make sure cjr is a valid station
You might need to specify a nearby major city
Try Again

Watch and Warning Statment

Sorry no data found for cjr
Make sure cjr is a valid station
You might need to specify a nearby major city
or it could be THERE ARE NO WATCHES OR WARNINGS for cjr
Try Again

Park/Ski Recreation Report/Forecast

Sorry no data found for cjr
Make sure cjr is a valid station
You might need to specify a nearby major city
Try Again